createdAt,value
2023-03-18T00:00:52.402Z,24.4
2023-03-18T00:06:45.011Z,23.8
2023-03-18T00:12:22.962Z,23.8
2023-03-18T00:17:13.127Z,23.3
2023-03-18T00:22:35.097Z,23.4
2023-03-18T00:28:27.684Z,22.9
2023-03-18T00:34:04.435Z,24.7
2023-03-18T00:39:57.903Z,26.4
2023-03-18T00:45:52.012Z,24.6
2023-03-18T00:51:13.536Z,24.9
2023-03-18T00:56:51.333Z,24.4
2023-03-18T01:02:45.143Z,24.3
2023-03-18T01:08:22.592Z,23.6
2023-03-18T01:14:03.195Z,23.6
2023-03-18T01:19:56.318Z,23
2023-03-18T01:25:18.072Z,24.4
2023-03-18T01:30:55.201Z,26
2023-03-18T01:36:47.934Z,24.9
2023-03-18T01:42:39.760Z,24.3
2023-03-18T01:48:17.518Z,24.5
2023-03-18T01:53:39.437Z,23.8
2023-03-18T01:59:31.782Z,23.8
2023-03-18T02:05:26.021Z,23.2
2023-03-18T02:11:18.606Z,23.1
2023-03-18T02:16:55.603Z,23.1
2023-03-18T02:22:17.320Z,24.9
2023-03-18T02:27:55.734Z,26.4
2023-03-18T02:33:48.353Z,24.3
2023-03-18T02:39:41.707Z,24.1
2023-03-18T02:45:34.755Z,24.1
2023-03-18T02:51:26.477Z,24
2023-03-18T02:57:19.165Z,23.4
2023-03-18T03:02:26.049Z,23.3
2023-03-18T03:08:04.016Z,22.8
2023-03-18T03:13:40.952Z,23.8
2023-03-18T03:19:17.993Z,25.4
2023-03-18T03:25:11.236Z,26.6
2023-03-18T03:31:03.995Z,24.2
2023-03-18T03:36:25.762Z,24.6
2023-03-18T03:42:18.242Z,24.1
2023-03-18T03:48:11.852Z,23.9
2023-03-18T03:53:49.363Z,23.3
2023-03-18T03:59:26.476Z,23.2
2023-03-18T04:04:48.446Z,22.6
2023-03-18T04:10:25.847Z,24.1
2023-03-18T04:16:19.021Z,25.3
2023-03-18T04:21:41.591Z,23.4
2023-03-18T04:27:18.177Z,25.3
2023-03-18T04:33:11.107Z,26.6
2023-03-18T04:39:03.663Z,24
2023-03-18T04:44:56.953Z,24.4
2023-03-18T04:50:50.542Z,23.9
2023-03-18T04:56:27.819Z,23.8
2023-03-18T05:02:08.771Z,23.1
2023-03-18T05:08:01.510Z,23
2023-03-18T05:13:53.978Z,22.8
2023-03-18T05:19:15.517Z,24.5
2023-03-18T05:25:07.702Z,26
2023-03-18T05:31:00.803Z,25.6
2023-03-18T05:36:55.280Z,24.1
2023-03-18T05:42:55.681Z,24.4
2023-03-18T05:48:48.598Z,23.7
2023-03-18T05:54:41.825Z,23.6
2023-03-18T06:00:05.039Z,23
2023-03-18T06:05:43.361Z,22.8
2023-03-18T06:11:38.086Z,23.3
2023-03-18T06:17:31.147Z,24.9
2023-03-18T06:23:09.716Z,26.2
2023-03-18T06:29:02.319Z,26.1
2023-03-18T06:34:56.484Z,24.1
2023-03-18T06:40:48.417Z,24.4
2023-03-18T06:46:43.865Z,23.7
2023-03-18T06:52:36.496Z,23.6
2023-03-18T06:58:28.656Z,22.9
2023-03-18T07:04:06.031Z,22.8
2023-03-18T07:09:59.297Z,23.5
2023-03-18T07:15:51.437Z,24.9
2023-03-18T07:21:47.766Z,26.2
2023-03-18T07:27:11.029Z,21.3
2023-03-18T07:33:07.487Z,24.3
2023-03-18T07:39:01.155Z,26.3
2023-03-18T07:44:56.119Z,23.8
2023-03-18T07:50:48.963Z,23.7
2023-03-18T07:56:42.070Z,23.8
2023-03-18T08:02:39.718Z,23.7
2023-03-18T08:08:18.097Z,23.1
2023-03-18T08:14:31.368Z,23.5
2023-03-18T08:20:24.565Z,25.6
2023-03-18T08:26:17.202Z,25
2023-03-18T08:32:11.348Z,23.5
2023-03-18T08:38:06.958Z,23.3
2023-03-18T08:43:43.375Z,22.8
2023-03-18T08:49:36.853Z,22.8
2023-03-18T08:55:13.702Z,24.9
2023-03-18T09:00:50.787Z,26.7
2023-03-18T09:06:13.354Z,23.5
2023-03-18T09:12:12.985Z,23.3
2023-03-18T09:18:29.168Z,22.9
2023-03-18T09:24:24.772Z,24.6
2023-03-18T09:30:17.448Z,26.8
2023-03-18T09:36:10.569Z,23.5
2023-03-18T09:42:04.417Z,23.3
2023-03-18T09:47:57.319Z,23.2
2023-03-18T09:53:49.924Z,25.6
2023-03-18T09:59:27.496Z,24.1
2023-03-18T10:05:20.292Z,23.4
2023-03-18T10:10:56.774Z,23.2
2023-03-18T10:16:34.356Z,24.4
2023-03-18T10:22:28.420Z,26.6
2023-03-18T10:28:31.921Z,23.6
2023-03-18T10:34:43.071Z,23.4
2023-03-18T10:40:21.406Z,23
2023-03-18T10:46:13.518Z,25.3
2023-03-18T10:52:06.931Z,24.4
2023-03-18T10:57:59.135Z,23.6
2023-03-18T11:03:52.162Z,23.3
2023-03-18T11:09:45.265Z,24.1
2023-03-18T11:15:38.493Z,26.1
2023-03-18T11:21:31.518Z,23.8
2023-03-18T11:27:24.577Z,23.5
2023-03-18T11:33:27.490Z,23.3
2023-03-18T11:39:21.480Z,24.6
2023-03-18T11:45:19.166Z,26.1
2023-03-18T11:50:56.611Z,23.6
2023-03-18T11:56:18.810Z,23.4
2023-03-18T12:01:41.813Z,23.1
2023-03-18T12:07:03.463Z,25.4
2023-03-18T12:12:59.022Z,24.6
2023-03-18T12:18:53.723Z,23.6
2023-03-18T12:24:31.309Z,23.4
2023-03-18T12:29:53.375Z,23.8
2023-03-18T12:35:32.837Z,26
2023-03-18T12:41:26.713Z,23.9
2023-03-18T12:47:19.544Z,23.6
2023-03-18T12:53:08.848Z,23.4
2023-03-18T12:59:02.319Z,24.3
2023-03-18T13:04:45.409Z,26.8
2023-03-18T13:10:23.174Z,23.8
2023-03-18T13:16:19.219Z,23.6
2023-03-18T13:21:57.681Z,23.3
2023-03-18T13:27:51.364Z,24.8
2023-03-18T13:33:44.967Z,25.6
2023-03-18T13:39:39.613Z,23.7
2023-03-18T13:45:33.085Z,23.6
2023-03-18T13:51:11.555Z,23.3
2023-03-18T13:57:03.727Z,25.2
2023-03-18T14:02:58.065Z,24.6
2023-03-18T14:08:51.762Z,23.8
2023-03-18T14:15:00.697Z,23.6
2023-03-18T14:20:41.961Z,23.3
2023-03-18T14:26:05.805Z,22.8
2023-03-18T14:31:27.647Z,22.4
2023-03-18T14:37:05.267Z,22.1
2023-03-18T14:43:01.176Z,21.6
2023-03-18T14:48:46.538Z,21.2
2023-03-18T14:54:23.812Z,20.8
2023-03-18T15:00:16.256Z,20.4
2023-03-18T15:06:08.883Z,20.1
2023-03-18T15:11:59.858Z,19.8
2023-03-18T15:17:36.824Z,19.4
2023-03-18T15:23:29.713Z,19.1
2023-03-18T15:29:07.217Z,18.8
2023-03-18T15:35:00.323Z,18.5
2023-03-18T15:40:53.489Z,18.3
2023-03-18T15:46:31.049Z,18
2023-03-18T15:52:23.813Z,17.8
2023-03-18T15:58:02.194Z,17.6
2023-03-18T16:03:54.479Z,17.4
2023-03-18T16:09:47.207Z,17.2
2023-03-18T16:21:17.731Z,16.8
2023-03-18T16:27:11.418Z,16.7
2023-03-18T16:33:03.554Z,16.5
2023-03-18T16:38:41.541Z,16.4
2023-03-18T16:44:18.792Z,16.2
2023-03-18T16:49:56.500Z,16.1
2023-03-18T16:55:49.066Z,16
2023-03-18T17:01:26.239Z,15.9
2023-03-18T17:07:04.401Z,15.8
2023-03-18T17:12:57.210Z,15.8
2023-03-18T17:18:36.753Z,15.8
2023-03-18T17:24:28.744Z,15.7
2023-03-18T17:30:06.477Z,15.8
2023-03-18T17:36:02.221Z,16
2023-03-18T17:41:39.714Z,16.1
2023-03-18T17:47:17.579Z,16.3
2023-03-18T17:53:09.912Z,16.3
2023-03-18T17:58:46.975Z,16.4
2023-03-18T18:04:40.710Z,16.4
2023-03-18T18:10:02.166Z,16.4
2023-03-18T18:15:39.348Z,16.5
2023-03-18T18:21:35.393Z,16.7
2023-03-18T18:27:13.836Z,16.9
2023-03-18T18:38:17.262Z,17.1
2023-03-18T18:44:10.197Z,17.1
2023-03-18T18:49:31.970Z,17.2
2023-03-18T18:55:25.756Z,17.3
2023-03-18T19:01:19.418Z,17.3
2023-03-18T19:06:57.613Z,17.5
2023-03-18T19:12:51.426Z,17.7
2023-03-18T19:18:29.331Z,17.9
2023-03-18T19:24:21.390Z,18.3
2023-03-18T19:30:06.607Z,18.4
2023-03-18T19:35:59.537Z,18.6
2023-03-18T19:41:37.526Z,18.6
2023-03-18T19:53:11.903Z,18.6
2023-03-18T19:59:04.114Z,18.6
2023-03-18T20:05:01.013Z,18.4
2023-03-18T20:10:54.301Z,18.3
2023-03-18T20:16:47.017Z,18.2
2023-03-18T20:22:40.196Z,18.1
2023-03-18T20:28:17.076Z,17.9
2023-03-18T20:33:39.910Z,17.8
2023-03-18T20:39:02.240Z,17.8
2023-03-18T20:44:08.745Z,17.6
2023-03-18T20:49:46.363Z,17.5
2023-03-18T20:55:39.356Z,17.4
2023-03-18T21:01:16.502Z,17.3
2023-03-18T21:07:10.194Z,17.1
2023-03-18T21:12:48.195Z,17.1
2023-03-18T21:18:41.704Z,24.8
2023-03-18T21:24:47.045Z,26.6
2023-03-18T21:30:57.921Z,26.1
2023-03-18T21:36:36.382Z,25.4
2023-03-18T21:42:28.947Z,25.1
2023-03-18T21:48:09.272Z,24.4
2023-03-18T21:54:13.756Z,24.5
2023-03-18T22:00:06.432Z,23.8
2023-03-18T22:05:59.895Z,23.9
2023-03-18T22:11:36.204Z,23.9
2023-03-18T22:16:58.130Z,23.6
2023-03-18T22:22:51.611Z,23.7
2023-03-18T22:27:58.055Z,23.2
2023-03-18T22:33:36.101Z,23.4
2023-03-18T22:39:29.918Z,22.9
2023-03-18T22:45:21.799Z,24.4
2023-03-18T22:51:01.469Z,26.7
2023-03-18T22:56:38.961Z,25.2
2023-03-18T23:02:33.752Z,25.2
2023-03-18T23:07:56.645Z,24.5
2023-03-18T23:14:03.435Z,24.4
2023-03-18T23:19:57.195Z,23.8
2023-03-18T23:25:50.264Z,23.7
2023-03-18T23:31:47.447Z,23.1
2023-03-18T23:36:54.512Z,23.1
2023-03-18T23:42:47.579Z,22.8
2023-03-18T23:48:42.762Z,25.1
2023-03-18T23:54:35.846Z,26.1
